sensor_id;sensor_type;location;lat;lon;timestamp;temperature;humidity
48212;DHT22;34000;48.772;9.162;2022-10-16T00:00:53;19.10;70.10
48212;DHT22;34000;48.772;9.162;2022-10-16T00:03:19;19.00;70.00
48212;DHT22;34000;48.772;9.162;2022-10-16T00:05:44;19.10;70.10
48212;DHT22;34000;48.772;9.162;2022-10-16T00:08:11;19.10;70.10
48212;DHT22;34000;48.772;9.162;2022-10-16T00:10:37;19.10;70.00
48212;DHT22;34000;48.772;9.162;2022-10-16T00:13:04;19.00;70.00
48212;DHT22;34000;48.772;9.162;2022-10-16T00:15:32;19.00;70.00
48212;DHT22;34000;48.772;9.162;2022-10-16T00:17:58;19.00;70.10
48212;DHT22;34000;48.772;9.162;2022-10-16T00:20:24;18.90;70.20
48212;DHT22;34000;48.772;9.162;2022-10-16T00:22:49;18.80;70.30
48212;DHT22;34000;48.772;9.162;2022-10-16T00:25:15;18.80;70.40
48212;DHT22;34000;48.772;9.162;2022-10-16T00:27:41;18.80;71.10
48212;DHT22;34000;48.772;9.162;2022-10-16T00:30:07;18.90;75.70
48212;DHT22;34000;48.772;9.162;2022-10-16T00:32:33;18.70;70.70
48212;DHT22;34000;48.772;9.162;2022-10-16T00:34:59;18.70;70.70
48212;DHT22;34000;48.772;9.162;2022-10-16T00:37:24;18.70;70.70
48212;DHT22;34000;48.772;9.162;2022-10-16T00:42:18;18.60;70.30
48212;DHT22;34000;48.772;9.162;2022-10-16T00:45:04;18.60;70.90
48212;DHT22;34000;48.772;9.162;2022-10-16T00:47:36;18.60;71.00
48212;DHT22;34000;48.772;9.162;2022-10-16T00:50:16;18.60;70.90
48212;DHT22;34000;48.772;9.162;2022-10-16T00:52:46;18.60;71.00
48212;DHT22;34000;48.772;9.162;2022-10-16T00:55:13;18.60;70.90
48212;DHT22;34000;48.772;9.162;2022-10-16T00:57:40;18.60;71.00
48212;DHT22;34000;48.772;9.162;2022-10-16T01:00:08;18.60;71.00
48212;DHT22;34000;48.772;9.162;2022-10-16T01:02:34;18.60;71.00
48212;DHT22;34000;48.772;9.162;2022-10-16T01:05:00;18.60;71.10
48212;DHT22;34000;48.772;9.162;2022-10-16T01:12:51;18.60;71.20
48212;DHT22;34000;48.772;9.162;2022-10-16T01:15:45;18.50;71.20
48212;DHT22;34000;48.772;9.162;2022-10-16T01:18:24;18.60;71.20
48212;DHT22;34000;48.772;9.162;2022-10-16T01:21:05;18.60;71.20
48212;DHT22;34000;48.772;9.162;2022-10-16T01:23:47;18.60;71.30
48212;DHT22;34000;48.772;9.162;2022-10-16T01:26:42;18.50;71.30
48212;DHT22;34000;48.772;9.162;2022-10-16T01:29:22;18.50;71.30
48212;DHT22;34000;48.772;9.162;2022-10-16T01:31:56;18.50;71.30
48212;DHT22;34000;48.772;9.162;2022-10-16T01:34:37;18.50;71.30
48212;DHT22;34000;48.772;9.162;2022-10-16T01:37:11;18.50;71.40
48212;DHT22;34000;48.772;9.162;2022-10-16T01:39:39;18.40;71.40
48212;DHT22;34000;48.772;9.162;2022-10-16T01:42:14;18.40;71.40
48212;DHT22;34000;48.772;9.162;2022-10-16T01:44:41;18.40;71.50
48212;DHT22;34000;48.772;9.162;2022-10-16T01:47:09;18.50;71.50
48212;DHT22;34000;48.772;9.162;2022-10-16T01:49:37;18.50;72.00
48212;DHT22;34000;48.772;9.162;2022-10-16T01:52:09;18.50;71.40
48212;DHT22;34000;48.772;9.162;2022-10-16T01:54:38;18.50;71.30
48212;DHT22;34000;48.772;9.162;2022-10-16T01:57:07;18.60;71.30
48212;DHT22;34000;48.772;9.162;2022-10-16T01:59:36;18.60;71.30
48212;DHT22;34000;48.772;9.162;2022-10-16T02:02:07;18.60;71.20
48212;DHT22;34000;48.772;9.162;2022-10-16T02:04:38;18.60;71.20
48212;DHT22;34000;48.772;9.162;2022-10-16T02:07:05;18.60;71.10
48212;DHT22;34000;48.772;9.162;2022-10-16T02:09:33;18.60;71.10
48212;DHT22;34000;48.772;9.162;2022-10-16T02:12:01;18.60;71.10
48212;DHT22;34000;48.772;9.162;2022-10-16T02:14:29;18.70;71.10
48212;DHT22;34000;48.772;9.162;2022-10-16T02:16:55;18.70;71.10
48212;DHT22;34000;48.772;9.162;2022-10-16T02:19:22;18.70;71.00
48212;DHT22;34000;48.772;9.162;2022-10-16T02:22:07;18.70;70.90
48212;DHT22;34000;48.772;9.162;2022-10-16T02:24:42;18.80;71.10
48212;DHT22;34000;48.772;9.162;2022-10-16T02:30:16;18.80;70.80
48212;DHT22;34000;48.772;9.162;2022-10-16T02:32:46;18.70;70.60
48212;DHT22;34000;48.772;9.162;2022-10-16T02:35:13;18.80;70.60
48212;DHT22;34000;48.772;9.162;2022-10-16T02:37:40;18.80;70.60
48212;DHT22;34000;48.772;9.162;2022-10-16T02:40:07;18.80;70.50
48212;DHT22;34000;48.772;9.162;2022-10-16T02:42:35;18.80;70.50
48212;DHT22;34000;48.772;9.162;2022-10-16T02:45:01;18.80;70.40
48212;DHT22;34000;48.772;9.162;2022-10-16T02:47:27;18.80;70.40
48212;DHT22;34000;48.772;9.162;2022-10-16T02:49:52;18.90;70.50
48212;DHT22;34000;48.772;9.162;2022-10-16T02:52:18;18.80;70.40
48212;DHT22;34000;48.772;9.162;2022-10-16T02:54:43;18.80;70.40
48212;DHT22;34000;48.772;9.162;2022-10-16T02:57:09;18.80;70.50
48212;DHT22;34000;48.772;9.162;2022-10-16T02:59:35;18.80;70.60
48212;DHT22;34000;48.772;9.162;2022-10-16T03:02:00;18.70;70.50
48212;DHT22;34000;48.772;9.162;2022-10-16T03:04:26;18.80;70.60
48212;DHT22;34000;48.772;9.162;2022-10-16T03:06:51;18.70;70.60
48212;DHT22;34000;48.772;9.162;2022-10-16T03:09:17;18.70;70.60
48212;DHT22;34000;48.772;9.162;2022-10-16T03:11:42;18.70;70.60
48212;DHT22;34000;48.772;9.162;2022-10-16T03:14:08;18.70;70.60
48212;DHT22;34000;48.772;9.162;2022-10-16T03:16:33;18.70;70.60
48212;DHT22;34000;48.772;9.162;2022-10-16T03:18:59;18.70;70.60
48212;DHT22;34000;48.772;9.162;2022-10-16T03:21:25;18.70;70.60
48212;DHT22;34000;48.772;9.162;2022-10-16T03:23:50;18.70;70.60
48212;DHT22;34000;48.772;9.162;2022-10-16T03:26:16;18.70;70.60
48212;DHT22;34000;48.772;9.162;2022-10-16T03:28:41;18.70;71.20
48212;DHT22;34000;48.772;9.162;2022-10-16T03:31:07;18.60;70.60
48212;DHT22;34000;48.772;9.162;2022-10-16T03:33:33;18.70;70.70
48212;DHT22;34000;48.772;9.162;2022-10-16T03:35:59;18.60;70.60
48212;DHT22;34000;48.772;9.162;2022-10-16T03:38:24;18.60;70.60
48212;DHT22;34000;48.772;9.162;2022-10-16T03:40:50;18.60;71.30
48212;DHT22;34000;48.772;9.162;2022-10-16T03:43:15;18.60;70.70
48212;DHT22;34000;48.772;9.162;2022-10-16T03:45:41;18.60;70.70
48212;DHT22;34000;48.772;9.162;2022-10-16T03:48:07;18.60;70.80
48212;DHT22;34000;48.772;9.162;2022-10-16T03:50:32;18.60;70.80
48212;DHT22;34000;48.772;9.162;2022-10-16T03:52:58;18.50;70.80
48212;DHT22;34000;48.772;9.162;2022-10-16T03:55:23;18.50;70.80
48212;DHT22;34000;48.772;9.162;2022-10-16T03:57:49;18.50;70.80
48212;DHT22;34000;48.772;9.162;2022-10-16T04:00:15;18.50;70.90
48212;DHT22;34000;48.772;9.162;2022-10-16T04:02:40;18.50;70.90
48212;DHT22;34000;48.772;9.162;2022-10-16T04:05:06;18.50;71.00
48212;DHT22;34000;48.772;9.162;2022-10-16T04:07:32;18.50;71.00
48212;DHT22;34000;48.772;9.162;2022-10-16T04:09:58;18.50;71.20
48212;DHT22;34000;48.772;9.162;2022-10-16T04:12:25;18.50;71.40
48212;DHT22;34000;48.772;9.162;2022-10-16T04:14:51;18.50;71.30
48212;DHT22;34000;48.772;9.162;2022-10-16T04:17:16;18.50;71.40
48212;DHT22;34000;48.772;9.162;2022-10-16T04:19:42;18.50;71.60
48212;DHT22;34000;48.772;9.162;2022-10-16T04:22:08;18.50;71.50
48212;DHT22;34000;48.772;9.162;2022-10-16T04:24:33;18.50;71.40
48212;DHT22;34000;48.772;9.162;2022-10-16T04:26:59;18.50;71.60
48212;DHT22;34000;48.772;9.162;2022-10-16T04:29:24;18.50;71.60
48212;DHT22;34000;48.772;9.162;2022-10-16T04:31:50;18.50;71.50
48212;DHT22;34000;48.772;9.162;2022-10-16T04:34:16;18.50;71.50
48212;DHT22;34000;48.772;9.162;2022-10-16T04:36:41;18.50;71.60
48212;DHT22;34000;48.772;9.162;2022-10-16T04:39:07;18.50;71.20
48212;DHT22;34000;48.772;9.162;2022-10-16T04:41:33;18.40;71.10
48212;DHT22;34000;48.772;9.162;2022-10-16T04:43:58;18.40;71.10
48212;DHT22;34000;48.772;9.162;2022-10-16T04:46:24;18.40;71.10
48212;DHT22;34000;48.772;9.162;2022-10-16T04:48:49;18.40;71.20
48212;DHT22;34000;48.772;9.162;2022-10-16T04:51:15;18.40;71.10
48212;DHT22;34000;48.772;9.162;2022-10-16T04:53:40;18.40;71.20
48212;DHT22;34000;48.772;9.162;2022-10-16T04:56:06;18.40;71.10
48212;DHT22;34000;48.772;9.162;2022-10-16T04:58:32;18.40;71.20
48212;DHT22;34000;48.772;9.162;2022-10-16T05:00:58;18.50;71.20
48212;DHT22;34000;48.772;9.162;2022-10-16T05:03:23;18.50;71.10
48212;DHT22;34000;48.772;9.162;2022-10-16T05:05:49;18.50;71.10
48212;DHT22;34000;48.772;9.162;2022-10-16T05:08:16;18.50;71.10
48212;DHT22;34000;48.772;9.162;2022-10-16T05:10:42;18.50;71.10
48212;DHT22;34000;48.772;9.162;2022-10-16T05:13:08;18.40;71.10
48212;DHT22;34000;48.772;9.162;2022-10-16T05:15:33;18.40;71.10
48212;DHT22;34000;48.772;9.162;2022-10-16T05:17:59;18.50;71.10
48212;DHT22;34000;48.772;9.162;2022-10-16T05:20:25;18.40;71.20
48212;DHT22;34000;48.772;9.162;2022-10-16T05:22:50;18.40;71.20
48212;DHT22;34000;48.772;9.162;2022-10-16T05:25:16;18.40;71.20
48212;DHT22;34000;48.772;9.162;2022-10-16T05:27:42;18.40;71.20
48212;DHT22;34000;48.772;9.162;2022-10-16T05:30:08;18.30;71.10
48212;DHT22;34000;48.772;9.162;2022-10-16T05:32:33;18.30;71.20
48212;DHT22;34000;48.772;9.162;2022-10-16T05:34:59;18.30;71.30
48212;DHT22;34000;48.772;9.162;2022-10-16T05:37:27;18.20;71.20
48212;DHT22;34000;48.772;9.162;2022-10-16T05:39:52;18.20;71.30
48212;DHT22;34000;48.772;9.162;2022-10-16T05:42:18;18.20;71.40
48212;DHT22;34000;48.772;9.162;2022-10-16T05:44:44;18.10;71.40
48212;DHT22;34000;48.772;9.162;2022-10-16T05:47:12;18.10;71.50
48212;DHT22;34000;48.772;9.162;2022-10-16T05:49:38;18.10;71.50
48212;DHT22;34000;48.772;9.162;2022-10-16T05:52:03;18.10;71.70
48212;DHT22;34000;48.772;9.162;2022-10-16T05:54:29;18.10;71.70
48212;DHT22;34000;48.772;9.162;2022-10-16T05:56:54;18.10;71.80
48212;DHT22;34000;48.772;9.162;2022-10-16T05:59:20;18.10;71.80
48212;DHT22;34000;48.772;9.162;2022-10-16T06:01:46;18.20;71.80
48212;DHT22;34000;48.772;9.162;2022-10-16T06:04:11;18.20;71.70
48212;DHT22;34000;48.772;9.162;2022-10-16T06:06:37;18.20;71.70
48212;DHT22;34000;48.772;9.162;2022-10-16T06:09:03;18.30;71.70
48212;DHT22;34000;48.772;9.162;2022-10-16T06:11:31;18.30;71.60
48212;DHT22;34000;48.772;9.162;2022-10-16T06:13:59;18.30;71.50
48212;DHT22;34000;48.772;9.162;2022-10-16T06:16:27;18.30;71.40
48212;DHT22;34000;48.772;9.162;2022-10-16T06:18:54;18.40;72.00
48212;DHT22;34000;48.772;9.162;2022-10-16T06:21:23;18.40;71.30
48212;DHT22;34000;48.772;9.162;2022-10-16T06:23:50;18.50;71.30
48212;DHT22;34000;48.772;9.162;2022-10-16T06:26:19;18.50;71.10
48212;DHT22;34000;48.772;9.162;2022-10-16T06:28:44;18.50;71.00
48212;DHT22;34000;48.772;9.162;2022-10-16T06:31:11;18.50;71.00
48212;DHT22;34000;48.772;9.162;2022-10-16T06:33:37;18.60;71.10
48212;DHT22;34000;48.772;9.162;2022-10-16T06:36:14;18.60;71.00
48212;DHT22;34000;48.772;9.162;2022-10-16T06:38:41;18.60;71.00
48212;DHT22;34000;48.772;9.162;2022-10-16T06:41:09;18.70;70.90
48212;DHT22;34000;48.772;9.162;2022-10-16T06:43:35;18.70;70.80
48212;DHT22;34000;48.772;9.162;2022-10-16T06:46:01;18.80;70.80
48212;DHT22;34000;48.772;9.162;2022-10-16T06:48:28;18.80;70.60
48212;DHT22;34000;48.772;9.162;2022-10-16T06:51:11;18.80;71.00
48212;DHT22;34000;48.772;9.162;2022-10-16T06:53:41;18.80;70.40
48212;DHT22;34000;48.772;9.162;2022-10-16T06:56:21;18.80;70.40
48212;DHT22;34000;48.772;9.162;2022-10-16T06:58:47;18.90;70.30
48212;DHT22;34000;48.772;9.162;2022-10-16T07:01:14;18.90;70.20
48212;DHT22;34000;48.772;9.162;2022-10-16T07:03:42;18.90;70.20
48212;DHT22;34000;48.772;9.162;2022-10-16T07:06:10;18.90;70.20
48212;DHT22;34000;48.772;9.162;2022-10-16T07:08:38;18.90;70.20
48212;DHT22;34000;48.772;9.162;2022-10-16T07:11:10;18.90;70.10
48212;DHT22;34000;48.772;9.162;2022-10-16T07:13:37;19.00;70.10
48212;DHT22;34000;48.772;9.162;2022-10-16T07:16:18;19.00;70.00
48212;DHT22;34000;48.772;9.162;2022-10-16T07:18:45;19.10;69.90
48212;DHT22;34000;48.772;9.162;2022-10-16T07:21:17;19.20;69.70
48212;DHT22;34000;48.772;9.162;2022-10-16T07:23:44;19.20;69.60
48212;DHT22;34000;48.772;9.162;2022-10-16T07:26:10;19.30;69.40
48212;DHT22;34000;48.772;9.162;2022-10-16T07:28:37;19.20;69.30
48212;DHT22;34000;48.772;9.162;2022-10-16T07:31:04;19.20;69.30
48212;DHT22;34000;48.772;9.162;2022-10-16T07:33:31;19.20;69.40
48212;DHT22;34000;48.772;9.162;2022-10-16T07:35:57;19.20;69.40
48212;DHT22;34000;48.772;9.162;2022-10-16T07:38:23;19.10;69.40
48212;DHT22;34000;48.772;9.162;2022-10-16T07:41:14;19.20;69.50
48212;DHT22;34000;48.772;9.162;2022-10-16T07:43:44;19.10;69.40
48212;DHT22;34000;48.772;9.162;2022-10-16T07:46:10;19.20;69.30
48212;DHT22;34000;48.772;9.162;2022-10-16T07:48:36;19.20;69.30
48212;DHT22;34000;48.772;9.162;2022-10-16T07:51:04;19.30;69.20
48212;DHT22;34000;48.772;9.162;2022-10-16T07:53:30;19.30;69.10
48212;DHT22;34000;48.772;9.162;2022-10-16T07:56:09;19.30;69.00
48212;DHT22;34000;48.772;9.162;2022-10-16T07:58:35;19.30;69.00
48212;DHT22;34000;48.772;9.162;2022-10-16T08:01:14;19.40;68.90
48212;DHT22;34000;48.772;9.162;2022-10-16T08:03:50;19.40;68.80
48212;DHT22;34000;48.772;9.162;2022-10-16T08:06:17;19.40;68.70
48212;DHT22;34000;48.772;9.162;2022-10-16T08:08:43;19.40;68.60
48212;DHT22;34000;48.772;9.162;2022-10-16T08:11:10;19.40;68.60
48212;DHT22;34000;48.772;9.162;2022-10-16T08:13:36;19.50;68.60
48212;DHT22;34000;48.772;9.162;2022-10-16T08:16:01;19.60;68.50
48212;DHT22;34000;48.772;9.162;2022-10-16T08:18:29;19.70;68.30
48212;DHT22;34000;48.772;9.162;2022-10-16T08:20:59;19.80;68.00
48212;DHT22;34000;48.772;9.162;2022-10-16T08:23:26;19.90;67.70
48212;DHT22;34000;48.772;9.162;2022-10-16T08:25:55;20.10;67.50
48212;DHT22;34000;48.772;9.162;2022-10-16T08:28:22;20.40;66.90
48212;DHT22;34000;48.772;9.162;2022-10-16T08:30:48;20.70;66.40
48212;DHT22;34000;48.772;9.162;2022-10-16T08:33:14;21.00;65.70
48212;DHT22;34000;48.772;9.162;2022-10-16T08:35:40;21.10;65.00
48212;DHT22;34000;48.772;9.162;2022-10-16T08:38:06;21.00;64.70
48212;DHT22;34000;48.772;9.162;2022-10-16T08:40:34;21.00;64.60
48212;DHT22;34000;48.772;9.162;2022-10-16T08:48:51;20.90;64.50
48212;DHT22;34000;48.772;9.162;2022-10-16T08:51:31;20.90;64.60
48212;DHT22;34000;48.772;9.162;2022-10-16T08:54:01;20.80;64.70
48212;DHT22;34000;48.772;9.162;2022-10-16T08:56:28;20.70;64.90
48212;DHT22;34000;48.772;9.162;2022-10-16T08:58:54;20.60;65.10
48212;DHT22;34000;48.772;9.162;2022-10-16T09:01:22;20.50;65.20
48212;DHT22;34000;48.772;9.162;2022-10-16T09:06:42;20.50;65.50
48212;DHT22;34000;48.772;9.162;2022-10-16T09:14:37;21.00;65.00
48212;DHT22;34000;48.772;9.162;2022-10-16T09:19:56;21.50;64.00
48212;DHT22;34000;48.772;9.162;2022-10-16T09:22:27;21.70;63.50
48212;DHT22;34000;48.772;9.162;2022-10-16T09:24:55;21.90;63.00
48212;DHT22;34000;48.772;9.162;2022-10-16T09:27:23;22.20;62.60
48212;DHT22;34000;48.772;9.162;2022-10-16T09:29:49;22.40;61.70
48212;DHT22;34000;48.772;9.162;2022-10-16T09:32:18;22.40;61.00
48212;DHT22;34000;48.772;9.162;2022-10-16T09:34:52;22.50;60.90
48212;DHT22;34000;48.772;9.162;2022-10-16T09:37:19;22.60;61.00
48212;DHT22;34000;48.772;9.162;2022-10-16T09:39:50;23.30;60.50
48212;DHT22;34000;48.772;9.162;2022-10-16T09:42:24;23.50;58.70
48212;DHT22;34000;48.772;9.162;2022-10-16T09:44:53;23.50;58.00
48212;DHT22;34000;48.772;9.162;2022-10-16T09:47:27;23.50;71.70
48212;DHT22;34000;48.772;9.162;2022-10-16T09:49:56;23.20;58.20
48212;DHT22;34000;48.772;9.162;2022-10-16T09:52:23;23.20;59.20
48212;DHT22;34000;48.772;9.162;2022-10-16T09:55:00;24.60;57.40
48212;DHT22;34000;48.772;9.162;2022-10-16T09:57:26;25.20;56.50
48212;DHT22;34000;48.772;9.162;2022-10-16T09:59:54;25.90;53.90
48212;DHT22;34000;48.772;9.162;2022-10-16T10:04:54;25.90;52.80
48212;DHT22;34000;48.772;9.162;2022-10-16T10:07:34;25.80;52.90
48212;DHT22;34000;48.772;9.162;2022-10-16T10:10:04;25.70;53.20
48212;DHT22;34000;48.772;9.162;2022-10-16T10:12:32;25.40;53.10
48212;DHT22;34000;48.772;9.162;2022-10-16T10:15:10;25.30;53.10
48212;DHT22;34000;48.772;9.162;2022-10-16T10:17:47;25.20;52.80
48212;DHT22;34000;48.772;9.162;2022-10-16T10:20:27;25.20;52.80
48212;DHT22;34000;48.772;9.162;2022-10-16T10:22:54;25.30;52.60
48212;DHT22;34000;48.772;9.162;2022-10-16T10:25:42;25.80;52.50
48212;DHT22;34000;48.772;9.162;2022-10-16T10:30:56;26.70;51.00
48212;DHT22;34000;48.772;9.162;2022-10-16T10:33:52;27.20;50.30
48212;DHT22;34000;48.772;9.162;2022-10-16T10:36:28;27.70;49.40
48212;DHT22;34000;48.772;9.162;2022-10-16T10:39:25;28.40;48.60
48212;DHT22;34000;48.772;9.162;2022-10-16T10:42:32;29.00;47.50
48212;DHT22;34000;48.772;9.162;2022-10-16T11:05:55;39.00;37.10
48212;DHT22;34000;48.772;9.162;2022-10-16T11:08:32;38.90;36.20
48212;DHT22;34000;48.772;9.162;2022-10-16T11:11:23;38.30;36.00
48212;DHT22;34000;48.772;9.162;2022-10-16T11:16:39;36.70;38.00
48212;DHT22;34000;48.772;9.162;2022-10-16T11:22:01;35.10;37.00
48212;DHT22;34000;48.772;9.162;2022-10-16T11:29:52;34.20;37.00
48212;DHT22;34000;48.772;9.162;2022-10-16T11:32:27;34.40;37.50
48212;DHT22;34000;48.772;9.162;2022-10-16T11:34:58;34.50;37.20
48212;DHT22;34000;48.772;9.162;2022-10-16T11:37:36;34.40;37.10
48212;DHT22;34000;48.772;9.162;2022-10-16T11:40:28;34.70;37.40
48212;DHT22;34000;48.772;9.162;2022-10-16T11:43:16;35.20;37.10
48212;DHT22;34000;48.772;9.162;2022-10-16T11:45:46;35.30;36.90
48212;DHT22;34000;48.772;9.162;2022-10-16T11:48:35;35.50;36.80
48212;DHT22;34000;48.772;9.162;2022-10-16T11:53:59;36.10;36.30
48212;DHT22;34000;48.772;9.162;2022-10-16T11:56:27;36.50;35.30
48212;DHT22;34000;48.772;9.162;2022-10-16T11:59:14;36.60;34.90
48212;DHT22;34000;48.772;9.162;2022-10-16T12:01:56;36.80;34.40
48212;DHT22;34000;48.772;9.162;2022-10-16T12:04:45;36.80;34.10
48212;DHT22;34000;48.772;9.162;2022-10-16T12:07:19;36.80;34.60
48212;DHT22;34000;48.772;9.162;2022-10-16T12:09:47;36.50;34.10
48212;DHT22;34000;48.772;9.162;2022-10-16T12:12:27;36.10;34.30
48212;DHT22;34000;48.772;9.162;2022-10-16T12:15:18;36.00;34.20
48212;DHT22;34000;48.772;9.162;2022-10-16T12:17:44;35.80;34.50
48212;DHT22;34000;48.772;9.162;2022-10-16T12:23:02;35.60;34.40
48212;DHT22;34000;48.772;9.162;2022-10-16T12:25:34;35.60;34.30
48212;DHT22;34000;48.772;9.162;2022-10-16T12:30:43;35.50;33.90
48212;DHT22;34000;48.772;9.162;2022-10-16T12:35:46;34.40;34.30
48212;DHT22;34000;48.772;9.162;2022-10-16T12:38:31;33.80;34.90
48212;DHT22;34000;48.772;9.162;2022-10-16T12:41:09;33.60;35.20
48212;DHT22;34000;48.772;9.162;2022-10-16T12:43:44;33.40;35.60
48212;DHT22;34000;48.772;9.162;2022-10-16T12:48:41;33.30;35.60
48212;DHT22;34000;48.772;9.162;2022-10-16T13:06:23;30.90;37.40
48212;DHT22;34000;48.772;9.162;2022-10-16T13:20:27;30.00;39.30
48212;DHT22;34000;48.772;9.162;2022-10-16T13:23:06;29.70;39.40
48212;DHT22;34000;48.772;9.162;2022-10-16T13:28:34;29.20;40.20
48212;DHT22;34000;48.772;9.162;2022-10-16T13:31:01;29.00;40.40
48212;DHT22;34000;48.772;9.162;2022-10-16T13:36:05;28.70;40.20
48212;DHT22;34000;48.772;9.162;2022-10-16T13:38:35;28.60;41.00
48212;DHT22;34000;48.772;9.162;2022-10-16T13:41:12;28.50;41.20
48212;DHT22;34000;48.772;9.162;2022-10-16T13:43:52;28.40;41.30
48212;DHT22;34000;48.772;9.162;2022-10-16T13:46:22;28.40;41.70
48212;DHT22;34000;48.772;9.162;2022-10-16T13:49:02;28.40;41.60
48212;DHT22;34000;48.772;9.162;2022-10-16T13:51:29;28.40;41.80
48212;DHT22;34000;48.772;9.162;2022-10-16T13:53:56;28.30;41.60
48212;DHT22;34000;48.772;9.162;2022-10-16T13:56:26;28.30;41.80
48212;DHT22;34000;48.772;9.162;2022-10-16T14:01:29;28.20;41.90
48212;DHT22;34000;48.772;9.162;2022-10-16T14:04:01;28.10;42.20
48212;DHT22;34000;48.772;9.162;2022-10-16T14:06:28;28.00;42.40
48212;DHT22;34000;48.772;9.162;2022-10-16T14:09:29;27.90;43.30
48212;DHT22;34000;48.772;9.162;2022-10-16T14:12:01;27.80;43.00
48212;DHT22;34000;48.772;9.162;2022-10-16T14:14:40;27.70;43.20
48212;DHT22;34000;48.772;9.162;2022-10-16T14:17:16;27.60;43.40
48212;DHT22;34000;48.772;9.162;2022-10-16T14:19:47;27.60;43.70
48212;DHT22;34000;48.772;9.162;2022-10-16T14:22:40;27.50;43.80
48212;DHT22;34000;48.772;9.162;2022-10-16T14:30:55;27.40;44.70
48212;DHT22;34000;48.772;9.162;2022-10-16T14:36:10;27.30;44.40
48212;DHT22;34000;48.772;9.162;2022-10-16T14:38:38;27.20;44.20
48212;DHT22;34000;48.772;9.162;2022-10-16T14:41:04;27.20;44.40
48212;DHT22;34000;48.772;9.162;2022-10-16T14:43:34;27.20;44.40
48212;DHT22;34000;48.772;9.162;2022-10-16T14:46:02;27.10;44.30
48212;DHT22;34000;48.772;9.162;2022-10-16T14:48:29;27.00;44.30
48212;DHT22;34000;48.772;9.162;2022-10-16T14:50:55;27.00;44.40
48212;DHT22;34000;48.772;9.162;2022-10-16T14:53:21;26.90;44.50
48212;DHT22;34000;48.772;9.162;2022-10-16T14:55:46;26.90;44.60
48212;DHT22;34000;48.772;9.162;2022-10-16T14:58:19;26.90;44.60
48212;DHT22;34000;48.772;9.162;2022-10-16T15:00:45;26.80;44.70
48212;DHT22;34000;48.772;9.162;2022-10-16T15:03:11;26.80;44.80
48212;DHT22;34000;48.772;9.162;2022-10-16T15:05:36;26.80;44.90
48212;DHT22;34000;48.772;9.162;2022-10-16T15:08:02;26.70;45.20
48212;DHT22;34000;48.772;9.162;2022-10-16T15:10:30;26.60;45.30
48212;DHT22;34000;48.772;9.162;2022-10-16T15:12:58;26.60;45.50
48212;DHT22;34000;48.772;9.162;2022-10-16T15:15:32;26.50;45.50
48212;DHT22;34000;48.772;9.162;2022-10-16T15:17:58;26.50;45.70
48212;DHT22;34000;48.772;9.162;2022-10-16T15:20:31;26.50;46.10
48212;DHT22;34000;48.772;9.162;2022-10-16T15:23:32;26.40;46.40
48212;DHT22;34000;48.772;9.162;2022-10-16T15:25:53;26.30;46.80
48212;DHT22;34000;48.772;9.162;2022-10-16T15:28:20;26.20;47.00
48212;DHT22;34000;48.772;9.162;2022-10-16T15:30:48;26.10;47.10
48212;DHT22;34000;48.772;9.162;2022-10-16T15:33:17;26.00;47.30
48212;DHT22;34000;48.772;9.162;2022-10-16T15:35:46;25.90;47.60
48212;DHT22;34000;48.772;9.162;2022-10-16T15:38:13;25.80;47.90
48212;DHT22;34000;48.772;9.162;2022-10-16T15:40:39;25.80;48.20
48212;DHT22;34000;48.772;9.162;2022-10-16T15:43:05;25.70;48.40
48212;DHT22;34000;48.772;9.162;2022-10-16T15:45:31;25.70;48.70
48212;DHT22;34000;48.772;9.162;2022-10-16T15:47:57;25.60;48.90
48212;DHT22;34000;48.772;9.162;2022-10-16T15:50:23;25.60;49.10
48212;DHT22;34000;48.772;9.162;2022-10-16T15:52:50;25.50;49.20
48212;DHT22;34000;48.772;9.162;2022-10-16T15:55:16;25.40;49.40
48212;DHT22;34000;48.772;9.162;2022-10-16T15:57:42;25.40;49.60
48212;DHT22;34000;48.772;9.162;2022-10-16T16:00:14;25.40;49.90
48212;DHT22;34000;48.772;9.162;2022-10-16T16:02:42;25.30;50.20
48212;DHT22;34000;48.772;9.162;2022-10-16T16:05:10;25.20;50.40
48212;DHT22;34000;48.772;9.162;2022-10-16T16:07:38;25.10;50.70
48212;DHT22;34000;48.772;9.162;2022-10-16T16:10:07;25.00;51.10
48212;DHT22;34000;48.772;9.162;2022-10-16T16:12:33;25.00;51.50
48212;DHT22;34000;48.772;9.162;2022-10-16T16:14:59;24.80;51.80
48212;DHT22;34000;48.772;9.162;2022-10-16T16:17:24;24.80;52.30
48212;DHT22;34000;48.772;9.162;2022-10-16T16:19:51;24.70;52.70
48212;DHT22;34000;48.772;9.162;2022-10-16T16:22:17;24.60;53.00
48212;DHT22;34000;48.772;9.162;2022-10-16T16:24:43;24.50;53.50
48212;DHT22;34000;48.772;9.162;2022-10-16T16:27:09;24.40;53.80
48212;DHT22;34000;48.772;9.162;2022-10-16T16:29:35;24.30;54.20
48212;DHT22;34000;48.772;9.162;2022-10-16T16:32:01;24.20;54.50
48212;DHT22;34000;48.772;9.162;2022-10-16T16:34:27;24.10;54.90
48212;DHT22;34000;48.772;9.162;2022-10-16T16:36:55;23.90;55.20
48212;DHT22;34000;48.772;9.162;2022-10-16T16:39:21;23.90;55.50
48212;DHT22;34000;48.772;9.162;2022-10-16T16:41:46;23.80;55.70
48212;DHT22;34000;48.772;9.162;2022-10-16T16:44:13;23.80;56.00
48212;DHT22;34000;48.772;9.162;2022-10-16T16:46:39;23.70;56.10
48212;DHT22;34000;48.772;9.162;2022-10-16T16:49:05;23.70;56.30
48212;DHT22;34000;48.772;9.162;2022-10-16T16:51:32;23.60;56.40
48212;DHT22;34000;48.772;9.162;2022-10-16T16:53:59;23.60;56.60
48212;DHT22;34000;48.772;9.162;2022-10-16T16:56:25;23.50;56.70
48212;DHT22;34000;48.772;9.162;2022-10-16T16:58:53;23.40;57.00
48212;DHT22;34000;48.772;9.162;2022-10-16T17:01:20;23.30;57.40
48212;DHT22;34000;48.772;9.162;2022-10-16T17:03:47;23.10;57.70
48212;DHT22;34000;48.772;9.162;2022-10-16T17:06:14;23.00;58.00
48212;DHT22;34000;48.772;9.162;2022-10-16T17:08:40;22.90;58.00
48212;DHT22;34000;48.772;9.162;2022-10-16T17:11:15;22.90;58.10
48212;DHT22;34000;48.772;9.162;2022-10-16T17:13:42;22.90;58.30
48212;DHT22;34000;48.772;9.162;2022-10-16T17:16:08;22.80;58.40
48212;DHT22;34000;48.772;9.162;2022-10-16T17:18:34;22.70;58.60
48212;DHT22;34000;48.772;9.162;2022-10-16T17:21:05;22.70;58.70
48212;DHT22;34000;48.772;9.162;2022-10-16T17:23:32;22.60;58.80
48212;DHT22;34000;48.772;9.162;2022-10-16T17:26:10;22.60;59.00
48212;DHT22;34000;48.772;9.162;2022-10-16T17:28:36;22.50;59.10
48212;DHT22;34000;48.772;9.162;2022-10-16T17:31:14;22.50;59.00
48212;DHT22;34000;48.772;9.162;2022-10-16T17:33:40;22.50;59.20
48212;DHT22;34000;48.772;9.162;2022-10-16T17:36:06;22.50;59.10
48212;DHT22;34000;48.772;9.162;2022-10-16T17:38:32;22.50;59.20
48212;DHT22;34000;48.772;9.162;2022-10-16T17:40:58;22.50;59.20
48212;DHT22;34000;48.772;9.162;2022-10-16T17:43:24;22.50;59.30
48212;DHT22;34000;48.772;9.162;2022-10-16T17:45:49;22.40;59.40